createdAt,value
2022-12-09T00:01:14.229Z,7.56
2022-12-09T00:03:48.053Z,7.50
2022-12-09T00:06:24.068Z,7.50
2022-12-09T00:08:58.639Z,7.60
2022-12-09T00:11:31.580Z,7.60
2022-12-09T00:14:04.727Z,7.60
2022-12-09T00:16:37.403Z,7.62
2022-12-09T00:19:10.554Z,7.60
2022-12-09T00:21:43.877Z,7.60
2022-12-09T00:24:18.113Z,7.60
2022-12-09T00:26:51.554Z,7.60
2022-12-09T00:29:24.117Z,7.60
2022-12-09T00:31:56.829Z,7.50
2022-12-09T00:34:29.508Z,7.40
2022-12-09T00:37:02.026Z,7.34
2022-12-09T00:39:34.549Z,7.22
2022-12-09T00:42:07.477Z,7.10
2022-12-09T00:44:39.913Z,7.00
2022-12-09T00:47:12.615Z,7.00
2022-12-09T00:49:45.315Z,7.00
2022-12-09T00:52:18.022Z,7.00
2022-12-09T00:54:50.804Z,7.00
2022-12-09T00:57:23.756Z,7.00
2022-12-09T00:59:57.128Z,7.00
2022-12-09T01:02:29.886Z,7.00
2022-12-09T01:05:02.559Z,7.06
2022-12-09T01:07:37.665Z,7.00
2022-12-09T01:10:12.445Z,7.00
2022-12-09T01:12:45.439Z,7.00
2022-12-09T01:15:17.967Z,7.04
2022-12-09T01:17:50.460Z,7.08
2022-12-09T01:20:23.180Z,7.00
2022-12-09T01:22:56.140Z,7.00
2022-12-09T01:25:30.221Z,6.90
2022-12-09T01:28:02.911Z,6.90
2022-12-09T01:30:36.000Z,6.90
2022-12-09T01:33:08.581Z,6.90
2022-12-09T01:35:44.744Z,6.90
2022-12-09T01:38:17.499Z,6.90
2022-12-09T01:40:51.412Z,6.90
2022-12-09T01:43:23.946Z,6.94
2022-12-09T01:45:57.573Z,7.00
2022-12-09T01:48:36.261Z,7.00
2022-12-09T01:51:15.643Z,7.00
2022-12-09T01:53:51.613Z,7.00
2022-12-09T01:56:29.934Z,6.90
2022-12-09T01:59:06.387Z,6.90
2022-12-09T02:01:41.716Z,6.90
2022-12-09T02:04:14.422Z,6.90
2022-12-09T02:06:47.778Z,7.00
2022-12-09T02:09:22.204Z,7.00
2022-12-09T02:12:13.005Z,7.00
2022-12-09T02:14:55.118Z,7.08
2022-12-09T02:17:39.175Z,7.06
2022-12-09T02:20:28.314Z,7.10
2022-12-09T02:23:10.471Z,7.10
2022-12-09T02:25:49.496Z,7.10
2022-12-09T02:29:13.067Z,7.14
2022-12-09T02:32:20.877Z,7.28
2022-12-09T02:35:04.317Z,7.30
2022-12-09T02:37:45.494Z,7.30
2022-12-09T02:40:26.906Z,7.40
2022-12-09T02:43:02.838Z,7.32
2022-12-09T02:45:38.831Z,7.38
2022-12-09T02:48:16.014Z,7.38
2022-12-09T02:50:55.372Z,7.30
2022-12-09T02:53:29.583Z,7.20
2022-12-09T02:56:04.675Z,7.20
2022-12-09T02:58:38.239Z,7.12
2022-12-09T03:01:25.949Z,7.20
2022-12-09T03:03:59.459Z,7.20
2022-12-09T03:06:42.616Z,7.20
2022-12-09T03:09:21.848Z,7.20
2022-12-09T03:11:56.662Z,7.20
2022-12-09T03:14:37.278Z,7.14
2022-12-09T03:17:17.790Z,7.10
2022-12-09T03:19:56.598Z,7.10
2022-12-09T03:22:35.565Z,7.10
2022-12-09T03:25:14.715Z,7.04
2022-12-09T03:27:57.165Z,7.00
2022-12-09T03:30:32.111Z,7.00
2022-12-09T03:33:06.176Z,7.00
2022-12-09T03:35:44.060Z,7.00
2022-12-09T03:38:21.636Z,7.02
2022-12-09T03:41:04.817Z,7.10
2022-12-09T03:43:45.190Z,7.06
2022-12-09T03:46:17.997Z,7.10
2022-12-09T03:48:51.333Z,7.10
2022-12-09T03:51:30.292Z,7.10
2022-12-09T03:54:15.159Z,7.20
2022-12-09T03:56:54.454Z,7.30
2022-12-09T03:59:32.306Z,7.30
2022-12-09T04:02:07.200Z,7.38
2022-12-09T04:04:43.930Z,7.40
2022-12-09T04:07:16.671Z,7.30
2022-12-09T04:09:49.448Z,7.30
2022-12-09T04:12:22.468Z,7.20
2022-12-09T04:14:55.392Z,7.16
2022-12-09T04:17:28.168Z,7.18
2022-12-09T04:20:01.560Z,7.20
2022-12-09T04:22:34.334Z,7.14
2022-12-09T04:25:08.237Z,7.16
2022-12-09T04:27:41.121Z,7.10
2022-12-09T04:30:15.856Z,7.12
2022-12-09T04:32:48.527Z,7.20
2022-12-09T04:35:21.680Z,7.20
2022-12-09T04:37:54.297Z,7.20
2022-12-09T04:40:26.846Z,7.18
2022-12-09T04:43:00.482Z,7.16
2022-12-09T04:45:33.154Z,7.10
2022-12-09T04:48:06.828Z,7.20
2022-12-09T04:50:42.480Z,7.22
2022-12-09T04:53:15.132Z,7.30
2022-12-09T04:55:47.907Z,7.30
2022-12-09T04:58:21.620Z,7.30
2022-12-09T05:00:54.720Z,7.30
2022-12-09T05:03:28.146Z,7.20
2022-12-09T05:06:01.210Z,7.20
2022-12-09T05:08:34.491Z,7.20
2022-12-09T05:11:08.590Z,7.20
2022-12-09T05:13:41.449Z,7.20
2022-12-09T05:16:18.472Z,7.20
2022-12-09T05:18:52.601Z,7.20
2022-12-09T05:21:26.363Z,7.20
2022-12-09T05:23:59.578Z,7.20
2022-12-09T05:26:32.291Z,7.20
2022-12-09T05:29:05.399Z,7.20
2022-12-09T05:31:37.990Z,7.20
2022-12-09T05:34:11.568Z,7.18
2022-12-09T05:36:45.104Z,7.10
2022-12-09T05:39:18.171Z,7.10
2022-12-09T05:41:50.711Z,7.10
2022-12-09T05:44:23.787Z,7.10
2022-12-09T05:46:57.585Z,7.20
2022-12-09T05:49:31.290Z,7.20
2022-12-09T05:52:04.599Z,7.20
2022-12-09T05:54:37.553Z,7.20
2022-12-09T05:57:10.244Z,7.20
2022-12-09T05:59:43.707Z,7.20
2022-12-09T06:02:16.793Z,7.20
2022-12-09T06:04:49.721Z,7.20
2022-12-09T06:07:22.693Z,7.20
2022-12-09T06:09:55.824Z,7.20
2022-12-09T06:12:29.894Z,7.20
2022-12-09T06:15:02.839Z,7.20
2022-12-09T06:17:35.803Z,7.20
2022-12-09T06:20:11.429Z,7.20
2022-12-09T06:22:44.669Z,7.30
2022-12-09T06:25:17.199Z,7.30
2022-12-09T06:27:49.787Z,7.30
2022-12-09T06:30:22.910Z,7.24
2022-12-09T06:32:55.640Z,7.20
2022-12-09T06:35:28.711Z,7.14
2022-12-09T06:38:01.746Z,7.20
2022-12-09T06:40:34.632Z,7.20
2022-12-09T06:43:07.521Z,7.20
2022-12-09T06:45:41.158Z,7.12
2022-12-09T06:48:14.015Z,7.10
2022-12-09T06:50:47.223Z,7.10
2022-12-09T06:53:19.988Z,7.10
2022-12-09T06:55:53.016Z,7.20
2022-12-09T06:58:26.054Z,7.30
2022-12-09T07:01:05.392Z,7.40
2022-12-09T07:03:38.508Z,7.40
2022-12-09T07:06:22.815Z,7.40
2022-12-09T07:08:56.461Z,7.46
2022-12-09T07:11:30.058Z,7.50
2022-12-09T07:14:03.055Z,7.58
2022-12-09T07:16:36.220Z,7.60
2022-12-09T07:19:16.289Z,7.60
2022-12-09T07:21:50.146Z,7.50
2022-12-09T07:24:23.173Z,7.50
2022-12-09T07:26:56.292Z,7.54
2022-12-09T07:29:28.925Z,7.60
2022-12-09T07:32:01.676Z,7.70
2022-12-09T07:34:35.027Z,7.70
2022-12-09T07:37:07.912Z,7.60
2022-12-09T07:39:40.644Z,7.56
2022-12-09T07:42:13.351Z,7.50
2022-12-09T07:44:53.568Z,7.40
2022-12-09T07:47:26.588Z,7.40
2022-12-09T07:50:04.687Z,7.40
2022-12-09T07:52:39.691Z,7.44
2022-12-09T07:55:14.562Z,7.42
2022-12-09T07:57:47.246Z,7.40
2022-12-09T08:00:22.699Z,7.40
2022-12-09T08:02:56.213Z,7.50
2022-12-09T08:05:29.271Z,7.60
2022-12-09T08:08:02.275Z,7.70
2022-12-09T08:10:35.446Z,7.70
2022-12-09T08:13:08.602Z,7.70
2022-12-09T08:15:41.577Z,7.70
2022-12-09T08:18:14.303Z,7.70
2022-12-09T08:20:47.834Z,7.70
2022-12-09T08:23:21.054Z,7.70
2022-12-09T08:25:59.337Z,7.80
2022-12-09T08:28:34.057Z,7.90
2022-12-09T08:31:13.962Z,7.90
2022-12-09T08:33:48.224Z,7.90
2022-12-09T08:36:24.057Z,7.90
2022-12-09T08:38:59.477Z,7.90
2022-12-09T08:41:39.116Z,7.90
2022-12-09T08:44:15.541Z,7.80
2022-12-09T08:46:52.000Z,7.70
2022-12-09T08:49:25.340Z,7.66
2022-12-09T08:51:58.950Z,7.60
2022-12-09T08:54:32.055Z,7.60
2022-12-09T08:57:05.149Z,7.60
2022-12-09T08:59:44.864Z,7.50
2022-12-09T09:02:18.190Z,7.50
2022-12-09T09:04:51.794Z,7.46
2022-12-09T09:07:24.753Z,7.50
2022-12-09T09:09:57.982Z,7.50
2022-12-09T09:12:30.629Z,7.52
2022-12-09T09:15:03.606Z,7.60
2022-12-09T09:17:36.634Z,7.60
2022-12-09T09:20:12.397Z,7.62
2022-12-09T09:22:45.175Z,7.60
2022-12-09T09:25:18.412Z,7.58
2022-12-09T09:27:51.087Z,7.60
2022-12-09T09:30:24.544Z,7.60
2022-12-09T09:32:57.744Z,7.60
2022-12-09T09:35:30.517Z,7.60
2022-12-09T09:38:03.877Z,7.60
2022-12-09T09:40:42.245Z,7.60
2022-12-09T09:43:23.893Z,7.60
2022-12-09T09:45:59.692Z,7.52
2022-12-09T09:48:36.889Z,7.50
2022-12-09T09:51:16.450Z,7.50
2022-12-09T09:53:54.060Z,7.50
2022-12-09T09:56:36.218Z,7.50
2022-12-09T09:59:27.913Z,7.44
2022-12-09T10:02:18.304Z,7.50
2022-12-09T10:05:06.203Z,7.60
2022-12-09T10:07:46.043Z,7.70
2022-12-09T10:10:36.112Z,7.80
2022-12-09T10:13:27.362Z,7.90
2022-12-09T10:16:13.328Z,7.98
2022-12-09T10:19:07.693Z,7.90
2022-12-09T10:21:46.755Z,7.90
2022-12-09T10:24:38.731Z,7.90
2022-12-09T10:27:23.146Z,7.90
2022-12-09T10:30:02.791Z,7.90
2022-12-09T10:32:38.472Z,7.90
2022-12-09T10:35:20.836Z,7.90
2022-12-09T10:37:57.062Z,7.90
2022-12-09T10:40:43.024Z,7.90
2022-12-09T10:43:38.840Z,7.90
2022-12-09T10:46:24.373Z,7.80
2022-12-09T10:49:03.968Z,7.80
2022-12-09T10:51:39.761Z,7.74
2022-12-09T10:54:27.141Z,7.70
2022-12-09T10:57:25.961Z,7.70
2022-12-09T11:00:07.667Z,7.70
2022-12-09T11:02:53.055Z,7.70
2022-12-09T11:05:33.950Z,7.80
2022-12-09T11:08:08.012Z,7.90
2022-12-09T11:10:49.359Z,8.00
2022-12-09T11:13:35.095Z,8.10
2022-12-09T11:16:09.442Z,8.10
2022-12-09T11:18:49.021Z,8.10
2022-12-09T11:21:38.689Z,8.10
2022-12-09T11:24:25.459Z,8.00
2022-12-09T11:26:58.213Z,7.80
2022-12-09T11:29:31.179Z,7.70
2022-12-09T11:32:05.648Z,7.70
2022-12-09T11:34:39.648Z,7.70
2022-12-09T11:37:15.302Z,7.70
2022-12-09T11:39:52.917Z,7.70
2022-12-09T11:42:35.276Z,7.80
2022-12-09T11:45:29.927Z,7.80
2022-12-09T11:48:36.009Z,7.80
2022-12-09T11:51:22.874Z,7.80
2022-12-09T11:54:03.415Z,7.90
2022-12-09T11:56:38.240Z,7.80
2022-12-09T11:59:18.969Z,7.80
2022-12-09T12:01:58.890Z,7.80
2022-12-09T12:04:39.118Z,7.70
2022-12-09T12:07:18.870Z,7.70
2022-12-09T12:09:57.719Z,7.70
2022-12-09T12:12:45.782Z,7.70
2022-12-09T12:15:27.738Z,7.70
2022-12-09T12:18:04.802Z,7.70
2022-12-09T12:21:03.912Z,7.70
2022-12-09T12:24:05.618Z,7.70
2022-12-09T12:26:47.680Z,7.80
2022-12-09T12:29:40.309Z,7.80
2022-12-09T12:32:28.162Z,7.80
2022-12-09T12:35:20.704Z,7.80
2022-12-09T12:38:09.667Z,7.70
2022-12-09T12:40:55.949Z,7.70
2022-12-09T12:44:11.739Z,7.58
2022-12-09T12:46:59.286Z,7.40
2022-12-09T12:50:16.330Z,7.40
2022-12-09T12:53:02.490Z,7.48
2022-12-09T12:55:59.414Z,7.60
2022-12-09T12:58:54.838Z,7.70
2022-12-09T13:01:34.800Z,7.80
2022-12-09T13:04:23.060Z,7.80
2022-12-09T13:07:06.849Z,7.80
2022-12-09T13:09:47.471Z,7.80
2022-12-09T13:12:44.874Z,7.88
2022-12-09T13:15:23.430Z,7.90
2022-12-09T13:17:57.002Z,7.90
2022-12-09T13:20:40.067Z,7.84
2022-12-09T13:23:27.873Z,7.80
2022-12-09T13:26:23.524Z,7.80
2022-12-09T13:29:05.129Z,7.80
2022-12-09T13:31:46.802Z,7.80
2022-12-09T13:34:37.232Z,7.90
2022-12-09T13:37:55.937Z,7.90
2022-12-09T13:40:36.874Z,8.00
2022-12-09T13:43:22.847Z,8.00
2022-12-09T13:46:00.865Z,8.10
2022-12-09T13:48:57.003Z,8.20
2022-12-09T13:51:44.286Z,8.30
2022-12-09T13:54:21.833Z,8.30
2022-12-09T13:57:21.026Z,8.20
2022-12-09T14:00:00.590Z,8.10
2022-12-09T14:02:43.999Z,8.00
2022-12-09T14:05:20.314Z,8.00
2022-12-09T14:07:59.972Z,8.00
2022-12-09T14:10:50.315Z,8.00
2022-12-09T14:13:33.074Z,8.04
2022-12-09T14:16:34.511Z,8.10
2022-12-09T14:19:51.137Z,8.10
2022-12-09T14:23:11.579Z,8.10
2022-12-09T14:26:11.136Z,8.10
2022-12-09T14:28:56.846Z,7.98
2022-12-09T14:31:50.199Z,7.90
2022-12-09T14:34:44.846Z,7.80
2022-12-09T14:38:05.807Z,7.80
2022-12-09T14:41:06.866Z,7.90
2022-12-09T14:44:08.416Z,8.00
2022-12-09T14:46:44.457Z,8.10
2022-12-09T14:49:23.342Z,8.20
2022-12-09T14:51:59.947Z,8.20
2022-12-09T14:54:37.015Z,8.20
2022-12-09T14:57:21.504Z,8.20
2022-12-09T14:59:57.119Z,8.28
2022-12-09T15:02:32.267Z,8.30
2022-12-09T15:05:16.905Z,8.30
2022-12-09T15:07:49.760Z,8.30
2022-12-09T15:10:32.096Z,8.30
2022-12-09T15:13:06.425Z,8.40
2022-12-09T15:15:42.411Z,8.30
2022-12-09T15:18:22.312Z,8.30
2022-12-09T15:20:58.265Z,8.40
2022-12-09T15:23:37.165Z,8.40
2022-12-09T15:26:22.578Z,8.40
2022-12-09T15:28:59.460Z,8.40
2022-12-09T15:31:35.328Z,8.46
2022-12-09T15:34:26.148Z,8.50
2022-12-09T15:37:05.683Z,8.50
2022-12-09T15:39:44.623Z,8.54
2022-12-09T15:42:26.121Z,8.60
2022-12-09T15:45:09.172Z,8.60
2022-12-09T15:47:46.912Z,8.50
2022-12-09T15:50:23.813Z,8.46
2022-12-09T15:53:00.195Z,8.40
2022-12-09T15:55:40.885Z,8.40
2022-12-09T15:58:19.599Z,8.50
2022-12-09T16:00:55.111Z,8.48
2022-12-09T16:03:33.213Z,8.40
2022-12-09T16:06:08.871Z,8.40
2022-12-09T16:08:45.927Z,8.30
2022-12-09T16:11:36.986Z,8.20
2022-12-09T16:14:10.934Z,8.12
2022-12-09T16:16:49.518Z,8.10
2022-12-09T16:19:40.723Z,8.10
2022-12-09T16:22:25.682Z,8.20
2022-12-09T16:25:19.608Z,8.20
2022-12-09T16:28:00.349Z,8.20
2022-12-09T16:30:46.797Z,8.20
2022-12-09T16:33:24.317Z,8.20
2022-12-09T16:36:04.801Z,8.12
2022-12-09T16:38:39.106Z,8.10
2022-12-09T16:41:14.527Z,8.10
2022-12-09T16:44:02.551Z,8.10
2022-12-09T16:46:51.764Z,8.10
2022-12-09T16:49:24.094Z,8.20
2022-12-09T16:51:57.611Z,8.28
2022-12-09T16:54:30.124Z,8.30
2022-12-09T16:57:02.512Z,8.20
2022-12-09T16:59:38.046Z,8.10
2022-12-09T17:02:20.222Z,8.10
2022-12-09T17:04:54.356Z,8.10
2022-12-09T17:07:26.738Z,8.10
2022-12-09T17:09:59.612Z,8.10
2022-12-09T17:12:32.110Z,8.10
2022-12-09T17:15:04.972Z,8.10
2022-12-09T17:17:37.388Z,8.06
2022-12-09T17:20:11.579Z,8.10
2022-12-09T17:22:44.224Z,8.10
2022-12-09T17:25:16.957Z,8.10
2022-12-09T17:27:49.379Z,8.10
2022-12-09T17:30:21.798Z,8.10
2022-12-09T17:32:54.256Z,8.20
2022-12-09T17:35:27.251Z,8.20
2022-12-09T17:37:59.750Z,8.20
2022-12-09T17:40:32.155Z,8.22
2022-12-09T17:43:04.865Z,8.20
2022-12-09T17:45:42.107Z,8.16
2022-12-09T17:48:15.072Z,8.10
2022-12-09T17:50:47.584Z,8.10
2022-12-09T17:53:20.039Z,8.00
2022-12-09T17:55:52.745Z,8.00
2022-12-09T17:58:25.449Z,8.00
2022-12-09T18:00:57.946Z,8.00
2022-12-09T18:03:54.393Z,8.02
2022-12-09T18:06:23.051Z,8.02
2022-12-09T18:08:55.852Z,8.00
2022-12-09T18:11:28.647Z,7.90
2022-12-09T18:14:01.937Z,7.82
2022-12-09T18:16:34.694Z,7.90
2022-12-09T18:19:13.108Z,7.90
2022-12-09T18:21:45.960Z,7.90
2022-12-09T18:24:18.878Z,7.90
2022-12-09T18:26:51.803Z,7.84
2022-12-09T18:29:24.952Z,7.80
2022-12-09T18:31:58.162Z,7.80
2022-12-09T18:34:33.007Z,7.70
2022-12-09T18:37:06.171Z,7.70
2022-12-09T18:39:39.387Z,7.70
2022-12-09T18:42:11.999Z,7.70
2022-12-09T18:44:45.079Z,7.60
2022-12-09T18:47:17.852Z,7.60
2022-12-09T18:49:50.543Z,7.60
2022-12-09T18:52:23.846Z,7.60
2022-12-09T18:54:56.260Z,7.60
2022-12-09T18:57:30.886Z,7.60
2022-12-09T19:00:04.037Z,7.60
2022-12-09T19:02:36.808Z,7.70
2022-12-09T19:05:10.557Z,7.70
2022-12-09T19:07:43.092Z,7.70
2022-12-09T19:10:15.900Z,7.70
2022-12-09T19:12:51.604Z,7.70
2022-12-09T19:15:28.109Z,7.70
2022-12-09T19:18:00.630Z,7.60
2022-12-09T19:20:33.120Z,7.70
2022-12-09T19:23:05.571Z,7.70
2022-12-09T19:25:42.755Z,7.70
2022-12-09T19:28:17.485Z,7.62
2022-12-09T19:30:50.208Z,7.60
2022-12-09T19:33:22.774Z,7.60
2022-12-09T19:35:55.424Z,7.60
2022-12-09T19:38:27.896Z,7.60
2022-12-09T19:41:04.203Z,7.60
2022-12-09T19:43:37.342Z,7.60
2022-12-09T19:46:13.805Z,7.60
2022-12-09T19:48:47.846Z,7.70
2022-12-09T19:51:24.027Z,7.70
2022-12-09T19:54:00.408Z,7.70
2022-12-09T19:56:33.246Z,7.70
2022-12-09T19:59:06.305Z,7.70
2022-12-09T20:01:42.203Z,7.70
2022-12-09T20:04:46.815Z,7.70
2022-12-09T20:07:10.281Z,7.70
2022-12-09T20:09:42.860Z,7.70
2022-12-09T20:12:15.838Z,7.70
2022-12-09T20:14:49.896Z,7.72
2022-12-09T20:17:22.389Z,7.80
2022-12-09T20:19:54.996Z,7.80
2022-12-09T20:22:27.591Z,7.80
2022-12-09T20:25:00.082Z,7.80
2022-12-09T20:27:32.655Z,7.80
2022-12-09T20:30:06.054Z,7.70
2022-12-09T20:32:38.727Z,7.70
2022-12-09T20:35:12.535Z,7.70
2022-12-09T20:37:45.251Z,7.80
2022-12-09T20:40:18.158Z,7.80
2022-12-09T20:42:50.687Z,7.86
2022-12-09T20:45:23.360Z,7.80
2022-12-09T20:47:55.844Z,7.88
2022-12-09T20:50:31.122Z,7.90
2022-12-09T20:53:06.620Z,7.90
2022-12-09T20:55:39.012Z,7.90
2022-12-09T20:58:11.675Z,7.90
2022-12-09T21:00:44.196Z,7.90
2022-12-09T21:03:16.742Z,7.90
2022-12-09T21:05:49.915Z,7.90
2022-12-09T21:08:25.737Z,7.80
2022-12-09T21:11:11.953Z,7.80
2022-12-09T21:13:47.639Z,7.72
2022-12-09T21:16:23.033Z,7.70
2022-12-09T21:18:58.551Z,7.70
2022-12-09T21:21:36.760Z,7.62
2022-12-09T21:24:12.393Z,7.70
2022-12-09T21:26:46.426Z,7.70
2022-12-09T21:29:20.246Z,7.70
2022-12-09T21:31:54.559Z,7.70
2022-12-09T21:34:27.500Z,7.70
2022-12-09T21:37:00.361Z,7.60
2022-12-09T21:39:33.614Z,7.60
2022-12-09T21:42:06.422Z,7.70
2022-12-09T21:44:41.285Z,7.70
2022-12-09T21:47:13.863Z,7.80
2022-12-09T21:49:46.437Z,7.80
2022-12-09T21:52:18.885Z,7.82
2022-12-09T21:54:55.427Z,7.80
2022-12-09T21:57:28.515Z,7.80
2022-12-09T22:00:01.163Z,7.80
2022-12-09T22:02:33.658Z,7.80
2022-12-09T22:05:07.179Z,7.80
2022-12-09T22:07:39.678Z,7.80
2022-12-09T22:10:14.274Z,7.80
2022-12-09T22:12:46.741Z,7.80
2022-12-09T22:15:19.698Z,7.80
2022-12-09T22:17:52.172Z,7.80
2022-12-09T22:23:17.695Z,7.80
2022-12-09T22:25:50.383Z,7.80
2022-12-09T22:28:23.212Z,7.70
2022-12-09T22:30:55.909Z,7.70
2022-12-09T22:33:29.159Z,7.68
2022-12-09T22:36:07.352Z,7.70
2022-12-09T22:38:42.660Z,7.70
2022-12-09T22:41:20.615Z,7.62
2022-12-09T22:43:55.176Z,7.60
2022-12-09T22:46:30.619Z,7.50
2022-12-09T22:49:07.828Z,7.40
2022-12-09T22:51:41.828Z,7.46
2022-12-09T22:54:15.367Z,7.50
2022-12-09T22:56:49.057Z,7.50
2022-12-09T22:59:22.298Z,7.50
2022-12-09T23:01:55.420Z,7.48
2022-12-09T23:04:28.276Z,7.40
2022-12-09T23:07:01.128Z,7.42
2022-12-09T23:09:34.625Z,7.40
2022-12-09T23:12:08.105Z,7.40
2022-12-09T23:14:40.999Z,7.40
2022-12-09T23:17:13.789Z,7.28
2022-12-09T23:19:46.368Z,7.20
2022-12-09T23:22:18.824Z,7.24
2022-12-09T23:24:51.897Z,7.30
2022-12-09T23:27:24.288Z,7.40
2022-12-09T23:29:56.719Z,7.40
2022-12-09T23:32:29.272Z,7.40
2022-12-09T23:35:07.082Z,7.40
2022-12-09T23:37:40.056Z,7.50
2022-12-09T23:40:15.016Z,7.60
2022-12-09T23:42:47.521Z,7.60
2022-12-09T23:45:20.399Z,7.54
2022-12-09T23:47:52.857Z,7.60
2022-12-09T23:50:25.951Z,7.60
2022-12-09T23:52:58.410Z,7.60
2022-12-09T23:55:30.945Z,7.60
2022-12-09T23:58:03.396Z,7.60
